sensor_id;sensor_type;location;lat;lon;timestamp;pressure;altitude;pressure_sealevel;temperature;humidity
59043;BME280;44826;51.596;5.624;2023-12-20T00:00:12;101508.69;;;5.45;100.00
59043;BME280;44826;51.596;5.624;2023-12-20T00:02:37;101513.84;;;5.43;100.00
59043;BME280;44826;51.596;5.624;2023-12-20T00:05:03;101522.41;;;5.39;100.00
59043;BME280;44826;51.596;5.624;2023-12-20T00:07:28;101530.13;;;5.35;100.00
59043;BME280;44826;51.596;5.624;2023-12-20T00:09:54;101528.34;;;5.30;100.00
59043;BME280;44826;51.596;5.624;2023-12-20T00:12:19;101518.91;;;5.28;100.00
59043;BME280;44826;51.596;5.624;2023-12-20T00:14:44;101529.19;;;5.23;100.00
59043;BME280;44826;51.596;5.624;2023-12-20T00:17:10;101535.16;;;5.19;100.00
59043;BME280;44826;51.596;5.624;2023-12-20T00:19:35;101540.34;;;5.21;100.00
59043;BME280;44826;51.596;5.624;2023-12-20T00:22:00;101536.84;;;5.14;100.00
59043;BME280;44826;51.596;5.624;2023-12-20T00:24:26;101538.56;;;5.13;100.00
59043;BME280;44826;51.596;5.624;2023-12-20T00:26:51;101534.22;;;5.08;100.00
59043;BME280;44826;51.596;5.624;2023-12-20T00:29:17;101534.19;;;5.06;100.00
59043;BME280;44826;51.596;5.624;2023-12-20T00:31:42;101530.75;;;5.06;100.00
59043;BME280;44826;51.596;5.624;2023-12-20T00:34:07;101530.75;;;5.06;100.00
59043;BME280;44826;51.596;5.624;2023-12-20T00:36:33;101527.34;;;5.08;100.00
59043;BME280;44826;51.596;5.624;2023-12-20T00:38:58;101519.63;;;5.10;100.00
59043;BME280;44826;51.596;5.624;2023-12-20T00:41:23;101518.75;;;5.08;100.00
59043;BME280;44826;51.596;5.624;2023-12-20T00:43:49;101522.19;;;5.08;100.00
59043;BME280;44826;51.596;5.624;2023-12-20T00:46:14;101521.31;;;5.05;100.00
59043;BME280;44826;51.596;5.624;2023-12-20T00:48:39;101512.69;;;5.03;100.00
59043;BME280;44826;51.596;5.624;2023-12-20T00:51:07;101516.97;;;5.00;100.00
59043;BME280;44826;51.596;5.624;2023-12-20T00:53:33;101512.66;;;4.99;100.00
59043;BME280;44826;51.596;5.624;2023-12-20T00:55:58;101519.50;;;4.96;100.00
59043;BME280;44826;51.596;5.624;2023-12-20T00:58:24;101504.00;;;4.93;100.00
59043;BME280;44826;51.596;5.624;2023-12-20T01:00:49;101524.63;;;4.91;100.00
59043;BME280;44826;51.596;5.624;2023-12-20T01:03:14;101524.59;;;4.88;100.00
59043;BME280;44826;51.596;5.624;2023-12-20T01:05:40;101519.41;;;4.85;100.00
59043;BME280;44826;51.596;5.624;2023-12-20T01:08:06;101514.25;;;4.85;100.00
59043;BME280;44826;51.596;5.624;2023-12-20T01:10:31;101514.25;;;4.85;100.00
59043;BME280;44826;51.596;5.624;2023-12-20T01:12:57;101515.13;;;4.85;100.00
59043;BME280;44826;51.596;5.624;2023-12-20T01:15:22;101521.97;;;4.82;100.00
59043;BME280;44826;51.596;5.624;2023-12-20T01:17:48;101512.50;;;4.81;100.00
59043;BME280;44826;51.596;5.624;2023-12-20T01:20:14;101515.91;;;4.80;100.00
59043;BME280;44826;51.596;5.624;2023-12-20T01:22:40;101517.66;;;4.78;100.00
59043;BME280;44826;51.596;5.624;2023-12-20T01:25:05;101521.91;;;4.77;100.00
59043;BME280;44826;51.596;5.624;2023-12-20T01:27:30;101527.97;;;4.78;100.00
59043;BME280;44826;51.596;5.624;2023-12-20T01:29:56;101521.91;;;4.77;100.00
59043;BME280;44826;51.596;5.624;2023-12-20T01:32:22;101526.22;;;4.77;100.00
59043;BME280;44826;51.596;5.624;2023-12-20T01:34:47;101523.63;;;4.75;100.00
59043;BME280;44826;51.596;5.624;2023-12-20T01:37:13;101518.47;;;4.74;100.00
59043;BME280;44826;51.596;5.624;2023-12-20T01:39:39;101529.66;;;4.76;100.00
59043;BME280;44826;51.596;5.624;2023-12-20T01:42:04;101530.50;;;4.75;100.00
59043;BME280;44826;51.596;5.624;2023-12-20T01:44:30;101529.66;;;4.76;100.00
59043;BME280;44826;51.596;5.624;2023-12-20T01:46:55;101511.59;;;4.77;100.00
59043;BME280;44826;51.596;5.624;2023-12-20T01:49:21;101519.34;;;4.76;100.00
59043;BME280;44826;51.596;5.624;2023-12-20T01:51:47;101520.19;;;4.76;100.00
59043;BME280;44826;51.596;5.624;2023-12-20T01:54:13;101527.97;;;4.78;100.00
59043;BME280;44826;51.596;5.624;2023-12-20T01:56:39;101521.03;;;4.74;100.00
59043;BME280;44826;51.596;5.624;2023-12-20T01:59:06;101533.88;;;4.70;100.00
59043;BME280;44826;51.596;5.624;2023-12-20T02:01:32;101534.75;;;4.68;100.00
59043;BME280;44826;51.596;5.624;2023-12-20T02:03:59;101526.94;;;4.63;100.00
59043;BME280;44826;51.596;5.624;2023-12-20T02:06:29;101525.19;;;4.61;100.00
59043;BME280;44826;51.596;5.624;2023-12-20T02:08:55;101526.00;;;4.56;100.00
59043;BME280;44826;51.596;5.624;2023-12-20T02:11:21;101521.69;;;4.55;100.00
59043;BME280;44826;51.596;5.624;2023-12-20T02:13:46;101533.69;;;4.53;100.00
59043;BME280;44826;51.596;5.624;2023-12-20T02:16:12;101536.25;;;4.49;100.00
59043;BME280;44826;51.596;5.624;2023-12-20T02:18:37;101534.50;;;4.48;100.00
59043;BME280;44826;51.596;5.624;2023-12-20T02:21:04;101534.50;;;4.48;100.00
59043;BME280;44826;51.596;5.624;2023-12-20T02:23:30;101531.03;;;4.46;100.00
59043;BME280;44826;51.596;5.624;2023-12-20T02:25:56;101526.75;;;4.45;100.00
59043;BME280;44826;51.596;5.624;2023-12-20T02:28:21;101526.75;;;4.43;100.00
59043;BME280;44826;51.596;5.624;2023-12-20T02:30:47;101528.44;;;4.41;100.00
59043;BME280;44826;51.596;5.624;2023-12-20T02:33:15;101525.84;;;4.39;100.00
59043;BME280;44826;51.596;5.624;2023-12-20T02:35:40;101521.53;;;4.38;100.00
59043;BME280;44826;51.596;5.624;2023-12-20T02:38:06;101525.81;;;4.36;100.00
59043;BME280;44826;51.596;5.624;2023-12-20T02:40:31;101528.38;;;4.36;100.00
59043;BME280;44826;51.596;5.624;2023-12-20T02:42:57;101528.38;;;4.36;100.00
59043;BME280;44826;51.596;5.624;2023-12-20T02:45:22;101528.38;;;4.36;100.00
59043;BME280;44826;51.596;5.624;2023-12-20T02:47:47;101527.53;;;4.37;100.00
59043;BME280;44826;51.596;5.624;2023-12-20T02:50:13;101524.06;;;4.35;100.00
59043;BME280;44826;51.596;5.624;2023-12-20T02:52:38;101518.94;;;4.35;100.00
59043;BME280;44826;51.596;5.624;2023-12-20T02:55:04;101523.22;;;4.35;100.00
59043;BME280;44826;51.596;5.624;2023-12-20T02:57:29;101526.66;;;4.34;100.00
59043;BME280;44826;51.596;5.624;2023-12-20T02:59:55;101519.78;;;4.33;100.00
59043;BME280;44826;51.596;5.624;2023-12-20T03:02:20;101517.16;;;4.31;100.00
59043;BME280;44826;51.596;5.624;2023-12-20T03:04:45;101516.31;;;4.31;100.00
59043;BME280;44826;51.596;5.624;2023-12-20T03:07:11;101517.16;;;4.30;100.00
59043;BME280;44826;51.596;5.624;2023-12-20T03:09:37;101515.44;;;4.30;100.00
59043;BME280;44826;51.596;5.624;2023-12-20T03:12:03;101512.00;;;4.31;100.00
59043;BME280;44826;51.596;5.624;2023-12-20T03:14:28;101502.59;;;4.32;100.00
59043;BME280;44826;51.596;5.624;2023-12-20T03:16:53;101504.28;;;4.30;100.00
59043;BME280;44826;51.596;5.624;2023-12-20T03:19:19;101496.50;;;4.28;100.00
59043;BME280;44826;51.596;5.624;2023-12-20T03:21:44;101490.50;;;4.29;100.00
59043;BME280;44826;51.596;5.624;2023-12-20T03:24:10;101490.50;;;4.28;100.00
59043;BME280;44826;51.596;5.624;2023-12-20T03:26:35;101492.22;;;4.27;100.00
59043;BME280;44826;51.596;5.624;2023-12-20T03:29:01;101499.09;;;4.28;100.00
59043;BME280;44826;51.596;5.624;2023-12-20T03:31:26;101499.09;;;4.28;100.00
59043;BME280;44826;51.596;5.624;2023-12-20T03:33:51;101500.00;;;4.32;100.00
59043;BME280;44826;51.596;5.624;2023-12-20T03:36:19;101500.00;;;4.32;100.00
59043;BME280;44826;51.596;5.624;2023-12-20T03:38:44;101499.97;;;4.30;100.00
59043;BME280;44826;51.596;5.624;2023-12-20T03:41:09;101495.66;;;4.29;100.00
59043;BME280;44826;51.596;5.624;2023-12-20T03:43:35;101487.13;;;4.32;100.00
59043;BME280;44826;51.596;5.624;2023-12-20T03:46:00;101484.56;;;4.33;100.00
59043;BME280;44826;51.596;5.624;2023-12-20T03:48:26;101488.88;;;4.36;100.00
59043;BME280;44826;51.596;5.624;2023-12-20T03:50:51;101474.28;;;4.38;100.00
59043;BME280;44826;51.596;5.624;2023-12-20T03:53:16;101473.47;;;4.40;100.00
59043;BME280;44826;51.596;5.624;2023-12-20T03:55:42;101480.31;;;4.40;100.00
59043;BME280;44826;51.596;5.624;2023-12-20T03:58:07;101491.50;;;4.42;100.00
59043;BME280;44826;51.596;5.624;2023-12-20T04:00:33;101485.50;;;4.45;100.00
59043;BME280;44826;51.596;5.624;2023-12-20T04:02:58;101487.28;;;4.47;100.00
59043;BME280;44826;51.596;5.624;2023-12-20T04:05:23;101501.06;;;4.51;100.00
59043;BME280;44826;51.596;5.624;2023-12-20T04:07:49;101500.19;;;4.52;100.00
59043;BME280;44826;51.596;5.624;2023-12-20T04:10:15;101508.81;;;4.54;100.00
59043;BME280;44826;51.596;5.624;2023-12-20T04:12:41;101501.09;;;4.55;100.00
59043;BME280;44826;51.596;5.624;2023-12-20T04:15:06;101497.69;;;4.60;100.00
59043;BME280;44826;51.596;5.624;2023-12-20T04:17:34;101493.44;;;4.62;100.00
59043;BME280;44826;51.596;5.624;2023-12-20T04:20:01;101490.84;;;4.63;100.00
59043;BME280;44826;51.596;5.624;2023-12-20T04:22:26;101496.00;;;4.63;100.00
59043;BME280;44826;51.596;5.624;2023-12-20T04:24:52;101496.00;;;4.63;100.00
59043;BME280;44826;51.596;5.624;2023-12-20T04:27:17;101489.16;;;4.65;100.00
59043;BME280;44826;51.596;5.624;2023-12-20T04:29:43;101491.78;;;4.68;100.00
59043;BME280;44826;51.596;5.624;2023-12-20T04:32:08;101500.38;;;4.72;100.00
59043;BME280;44826;51.596;5.624;2023-12-20T04:34:33;101488.38;;;4.74;100.00
59043;BME280;44826;51.596;5.624;2023-12-20T04:36:59;101483.25;;;4.76;100.00
59043;BME280;44826;51.596;5.624;2023-12-20T04:39:26;101488.41;;;4.79;100.00
59043;BME280;44826;51.596;5.624;2023-12-20T04:41:52;101485.88;;;4.80;100.00
59043;BME280;44826;51.596;5.624;2023-12-20T04:44:17;101487.59;;;4.81;100.00
59043;BME280;44826;51.596;5.624;2023-12-20T04:46:43;101492.78;;;4.84;100.00
59043;BME280;44826;51.596;5.624;2023-12-20T04:49:08;101490.19;;;4.86;100.00
59043;BME280;44826;51.596;5.624;2023-12-20T04:51:34;101497.94;;;4.88;100.00
59043;BME280;44826;51.596;5.624;2023-12-20T04:53:59;101487.63;;;4.88;100.00
59043;BME280;44826;51.596;5.624;2023-12-20T04:56:25;101499.66;;;4.89;100.00
59043;BME280;44826;51.596;5.624;2023-12-20T04:58:50;101502.28;;;4.92;100.00
59043;BME280;44826;51.596;5.624;2023-12-20T05:01:16;101504.03;;;4.94;100.00
59043;BME280;44826;51.596;5.624;2023-12-20T05:03:42;101495.41;;;4.95;100.00
59043;BME280;44826;51.596;5.624;2023-12-20T05:06:07;101492.88;;;4.98;100.00
59043;BME280;44826;51.596;5.624;2023-12-20T05:08:32;101486.00;;;5.00;100.00
59043;BME280;44826;51.596;5.624;2023-12-20T05:10:58;101484.31;;;5.01;100.00
59043;BME280;44826;51.596;5.624;2023-12-20T05:13:23;101480.00;;;5.01;100.00
59043;BME280;44826;51.596;5.624;2023-12-20T05:15:49;101479.16;;;5.03;100.00
59043;BME280;44826;51.596;5.624;2023-12-20T05:18:17;101479.16;;;5.04;100.00
59043;BME280;44826;51.596;5.624;2023-12-20T05:20:42;101473.16;;;5.04;100.00
59043;BME280;44826;51.596;5.624;2023-12-20T05:23:08;101470.56;;;5.05;100.00
59043;BME280;44826;51.596;5.624;2023-12-20T05:25:33;101471.47;;;5.09;100.00
59043;BME280;44826;51.596;5.624;2023-12-20T05:27:58;101481.78;;;5.09;100.00
59043;BME280;44826;51.596;5.624;2023-12-20T05:30:24;101474.06;;;5.10;100.00
59043;BME280;44826;51.596;5.624;2023-12-20T05:32:49;101474.94;;;5.11;100.00
59043;BME280;44826;51.596;5.624;2023-12-20T05:35:15;101467.19;;;5.14;100.00
59043;BME280;44826;51.596;5.624;2023-12-20T05:37:41;101467.22;;;5.15;100.00
59043;BME280;44826;51.596;5.624;2023-12-20T05:40:08;101469.81;;;5.17;100.00
59043;BME280;44826;51.596;5.624;2023-12-20T05:42:36;101469.81;;;5.17;100.00
59043;BME280;44826;51.596;5.624;2023-12-20T05:45:04;101471.53;;;5.18;100.00
59043;BME280;44826;51.596;5.624;2023-12-20T05:47:30;101471.53;;;5.18;100.00
59043;BME280;44826;51.596;5.624;2023-12-20T05:49:56;101467.22;;;5.17;100.00
59043;BME280;44826;51.596;5.624;2023-12-20T05:52:21;101469.84;;;5.19;100.00
59043;BME280;44826;51.596;5.624;2023-12-20T05:54:47;101462.94;;;5.19;100.00
59043;BME280;44826;51.596;5.624;2023-12-20T05:57:13;101468.97;;;5.20;100.00
59043;BME280;44826;51.596;5.624;2023-12-20T05:59:38;101471.56;;;5.21;100.00
59043;BME280;44826;51.596;5.624;2023-12-20T06:02:04;101476.72;;;5.21;100.00
59043;BME280;44826;51.596;5.624;2023-12-20T06:04:30;101477.53;;;5.17;100.00
59043;BME280;44826;51.596;5.624;2023-12-20T06:06:55;101482.69;;;5.17;100.00
59043;BME280;44826;51.596;5.624;2023-12-20T06:09:20;101491.28;;;5.16;100.00
59043;BME280;44826;51.596;5.624;2023-12-20T06:11:46;101481.81;;;5.15;100.00
59043;BME280;44826;51.596;5.624;2023-12-20T06:14:11;101491.28;;;5.14;100.00
59043;BME280;44826;51.596;5.624;2023-12-20T06:16:37;101495.59;;;5.15;100.00
59043;BME280;44826;51.596;5.624;2023-12-20T06:19:02;101492.13;;;5.15;100.00
59043;BME280;44826;51.596;5.624;2023-12-20T06:21:27;101499.00;;;5.13;100.00
59043;BME280;44826;51.596;5.624;2023-12-20T06:23:53;101503.31;;;5.14;100.00
59043;BME280;44826;51.596;5.624;2023-12-20T06:26:18;101506.72;;;5.11;100.00
59043;BME280;44826;51.596;5.624;2023-12-20T06:28:44;101505.03;;;5.13;100.00
59043;BME280;44826;51.596;5.624;2023-12-20T06:31:09;101502.47;;;5.12;100.00
59043;BME280;44826;51.596;5.624;2023-12-20T06:33:34;101502.47;;;5.12;100.00
59043;BME280;44826;51.596;5.624;2023-12-20T06:36:00;101492.97;;;5.09;100.00
59043;BME280;44826;51.596;5.624;2023-12-20T06:38:26;101499.00;;;5.10;100.00
59043;BME280;44826;51.596;5.624;2023-12-20T06:40:51;101500.72;;;5.11;100.00
59043;BME280;44826;51.596;5.624;2023-12-20T06:43:16;101492.97;;;5.08;100.00
59043;BME280;44826;51.596;5.624;2023-12-20T06:45:42;101494.66;;;5.07;100.00
59043;BME280;44826;51.596;5.624;2023-12-20T06:48:07;101489.47;;;5.04;100.00
59043;BME280;44826;51.596;5.624;2023-12-20T06:50:34;101491.22;;;5.07;100.00
59043;BME280;44826;51.596;5.624;2023-12-20T06:52:59;101492.09;;;5.06;100.00
59043;BME280;44826;51.596;5.624;2023-12-20T06:55:31;101488.66;;;5.07;100.00
59043;BME280;44826;51.596;5.624;2023-12-20T06:57:57;101494.66;;;5.06;100.00
59043;BME280;44826;51.596;5.624;2023-12-20T07:00:22;101497.25;;;5.06;100.00
59043;BME280;44826;51.596;5.624;2023-12-20T07:02:49;101493.78;;;5.04;100.00
59043;BME280;44826;51.596;5.624;2023-12-20T07:05:19;101498.09;;;5.05;100.00
59043;BME280;44826;51.596;5.624;2023-12-20T07:07:45;101486.06;;;5.07;100.00
59043;BME280;44826;51.596;5.624;2023-12-20T07:10:12;101490.34;;;5.05;100.00
59043;BME280;44826;51.596;5.624;2023-12-20T07:12:37;101495.47;;;5.01;100.00
59043;BME280;44826;51.596;5.624;2023-12-20T07:15:03;101489.47;;;5.01;100.00
59043;BME280;44826;51.596;5.624;2023-12-20T07:17:28;101493.75;;;5.00;100.00
59043;BME280;44826;51.596;5.624;2023-12-20T07:19:54;101494.59;;;4.99;100.00
59043;BME280;44826;51.596;5.624;2023-12-20T07:22:19;101484.28;;;4.98;100.00
59043;BME280;44826;51.596;5.624;2023-12-20T07:24:44;101484.28;;;4.99;100.00
59043;BME280;44826;51.596;5.624;2023-12-20T07:27:11;101485.16;;;5.00;100.00
59043;BME280;44826;51.596;5.624;2023-12-20T07:29:36;101488.56;;;4.97;100.00
59043;BME280;44826;51.596;5.624;2023-12-20T07:32:01;101487.72;;;4.97;100.00
59043;BME280;44826;51.596;5.624;2023-12-20T07:34:27;101485.09;;;4.95;100.00
59043;BME280;44826;51.596;5.624;2023-12-20T07:36:52;101491.16;;;4.97;100.00
59043;BME280;44826;51.596;5.624;2023-12-20T07:39:18;101484.25;;;4.96;100.00
59043;BME280;44826;51.596;5.624;2023-12-20T07:41:44;101481.69;;;4.96;100.00
59043;BME280;44826;51.596;5.624;2023-12-20T07:44:09;101475.69;;;4.96;100.00
59043;BME280;44826;51.596;5.624;2023-12-20T07:46:35;101478.25;;;4.97;100.00
59043;BME280;44826;51.596;5.624;2023-12-20T07:49:03;101468.78;;;4.95;100.00
59043;BME280;44826;51.596;5.624;2023-12-20T07:51:29;101474.78;;;4.95;100.00
59043;BME280;44826;51.596;5.624;2023-12-20T07:53:54;101472.22;;;4.95;100.00
59043;BME280;44826;51.596;5.624;2023-12-20T07:56:22;101470.50;;;4.97;100.00
59043;BME280;44826;51.596;5.624;2023-12-20T07:58:48;101476.53;;;4.96;100.00
59043;BME280;44826;51.596;5.624;2023-12-20T08:01:16;101473.09;;;4.97;100.00
59043;BME280;44826;51.596;5.624;2023-12-20T08:03:41;101486.88;;;4.99;100.00
59043;BME280;44826;51.596;5.624;2023-12-20T08:06:06;101477.44;;;5.00;100.00
59043;BME280;44826;51.596;5.624;2023-12-20T08:08:32;101488.59;;;5.00;100.00
59043;BME280;44826;51.596;5.624;2023-12-20T08:10:57;101492.94;;;5.03;100.00
59043;BME280;44826;51.596;5.624;2023-12-20T08:13:25;101490.31;;;5.01;100.00
59043;BME280;44826;51.596;5.624;2023-12-20T08:15:52;101495.50;;;5.05;100.00
59043;BME280;44826;51.596;5.624;2023-12-20T08:18:17;101492.09;;;5.06;100.00
59043;BME280;44826;51.596;5.624;2023-12-20T08:20:42;101496.38;;;5.08;100.00
59043;BME280;44826;51.596;5.624;2023-12-20T08:23:08;101499.00;;;5.10;100.00
59043;BME280;44826;51.596;5.624;2023-12-20T08:25:41;101499.84;;;5.10;100.00
59043;BME280;44826;51.596;5.624;2023-12-20T08:28:07;101499.00;;;5.10;100.00
59043;BME280;44826;51.596;5.624;2023-12-20T08:30:32;101509.31;;;5.11;100.00
59043;BME280;44826;51.596;5.624;2023-12-20T08:33:00;101504.19;;;5.16;100.00
59043;BME280;44826;51.596;5.624;2023-12-20T08:35:27;101505.06;;;5.16;100.00
59043;BME280;44826;51.596;5.624;2023-12-20T08:37:53;101500.78;;;5.20;100.00
59043;BME280;44826;51.596;5.624;2023-12-20T08:40:18;101499.94;;;5.21;100.00
59043;BME280;44826;51.596;5.624;2023-12-20T08:42:46;101490.50;;;5.23;100.00
59043;BME280;44826;51.596;5.624;2023-12-20T08:45:11;101493.09;;;5.28;100.00
59043;BME280;44826;51.596;5.624;2023-12-20T08:47:37;101495.69;;;5.29;100.00
59043;BME280;44826;51.596;5.624;2023-12-20T08:50:03;101488.84;;;5.35;100.00
59043;BME280;44826;51.596;5.624;2023-12-20T08:52:28;101472.50;;;5.36;100.00
59043;BME280;44826;51.596;5.624;2023-12-20T08:54:57;101477.69;;;5.37;100.00
59043;BME280;44826;51.596;5.624;2023-12-20T08:57:22;101475.09;;;5.39;100.00
59043;BME280;44826;51.596;5.624;2023-12-20T08:59:54;101469.09;;;5.40;100.00
59043;BME280;44826;51.596;5.624;2023-12-20T09:02:20;101470.81;;;5.41;100.00
59043;BME280;44826;51.596;5.624;2023-12-20T09:04:45;101471.69;;;5.43;100.00
59043;BME280;44826;51.596;5.624;2023-12-20T09:07:26;101479.44;;;5.43;100.00
59043;BME280;44826;51.596;5.624;2023-12-20T09:09:52;101472.56;;;5.48;100.00
59043;BME280;44826;51.596;5.624;2023-12-20T09:12:18;101473.41;;;5.47;100.00
59043;BME280;44826;51.596;5.624;2023-12-20T09:14:45;101482.91;;;5.46;100.00
59043;BME280;44826;51.596;5.624;2023-12-20T09:17:10;101480.31;;;5.48;100.00
59043;BME280;44826;51.596;5.624;2023-12-20T09:19:39;101472.63;;;5.53;100.00
59043;BME280;44826;51.596;5.624;2023-12-20T09:22:05;101468.31;;;5.53;100.00
59043;BME280;44826;51.596;5.624;2023-12-20T09:24:51;101489.84;;;5.54;100.00
59043;BME280;44826;51.596;5.624;2023-12-20T09:27:19;101482.94;;;5.54;100.00
59043;BME280;44826;51.596;5.624;2023-12-20T09:29:44;101479.50;;;5.57;100.00
59043;BME280;44826;51.596;5.624;2023-12-20T09:32:10;101464.91;;;5.60;100.00
59043;BME280;44826;51.596;5.624;2023-12-20T09:34:35;101468.34;;;5.59;100.00
59043;BME280;44826;51.596;5.624;2023-12-20T09:37:05;101475.22;;;5.59;100.00
59043;BME280;44826;51.596;5.624;2023-12-20T09:39:34;101469.19;;;5.60;100.00
59043;BME280;44826;51.596;5.624;2023-12-20T09:44:24;101466.63;;;5.65;100.00
59043;BME280;44826;51.596;5.624;2023-12-20T09:46:51;101473.50;;;5.66;100.00
59043;BME280;44826;51.596;5.624;2023-12-20T09:49:18;101472.66;;;5.65;100.00
59043;BME280;44826;51.596;5.624;2023-12-20T09:52:05;101480.41;;;5.67;100.00
59043;BME280;44826;51.596;5.624;2023-12-20T09:54:39;101474.34;;;5.60;100.00
59043;BME280;44826;51.596;5.624;2023-12-20T09:57:06;101475.25;;;5.60;100.00
59043;BME280;44826;51.596;5.624;2023-12-20T09:59:31;101475.25;;;5.64;100.00
59043;BME280;44826;51.596;5.624;2023-12-20T10:01:57;101475.25;;;5.67;100.00
59043;BME280;44826;51.596;5.624;2023-12-20T10:04:23;101466.66;;;5.66;100.00
59043;BME280;44826;51.596;5.624;2023-12-20T10:06:48;101464.94;;;5.68;100.00
59043;BME280;44826;51.596;5.624;2023-12-20T10:09:15;101470.97;;;5.69;100.00
59043;BME280;44826;51.596;5.624;2023-12-20T10:11:43;101461.50;;;5.71;100.00
59043;BME280;44826;51.596;5.624;2023-12-20T10:14:10;101460.66;;;5.72;100.00
59043;BME280;44826;51.596;5.624;2023-12-20T10:16:36;101471.84;;;5.74;100.00
59043;BME280;44826;51.596;5.624;2023-12-20T10:19:04;101470.13;;;5.73;100.00
59043;BME280;44826;51.596;5.624;2023-12-20T10:21:31;101470.13;;;5.74;100.00
59043;BME280;44826;51.596;5.624;2023-12-20T10:23:57;101467.56;;;5.76;100.00
59043;BME280;44826;51.596;5.624;2023-12-20T10:26:26;101468.44;;;5.78;100.00
59043;BME280;44826;51.596;5.624;2023-12-20T10:29:00;101471.88;;;5.83;100.00
59043;BME280;44826;51.596;5.624;2023-12-20T10:31:33;101490.81;;;5.85;100.00
59043;BME280;44826;51.596;5.624;2023-12-20T10:39:23;101462.44;;;5.93;100.00
59043;BME280;44826;51.596;5.624;2023-12-20T10:41:49;101454.75;;;5.98;100.00
59043;BME280;44826;51.596;5.624;2023-12-20T10:44:15;101444.41;;;5.98;100.00
59043;BME280;44826;51.596;5.624;2023-12-20T10:46:41;101446.09;;;5.99;100.00
59043;BME280;44826;51.596;5.624;2023-12-20T10:49:15;101444.44;;;6.02;100.00
59043;BME280;44826;51.596;5.624;2023-12-20T10:51:42;101448.75;;;6.05;100.00
59043;BME280;44826;51.596;5.624;2023-12-20T10:54:09;101445.31;;;6.06;100.00
59043;BME280;44826;51.596;5.624;2023-12-20T10:57:08;101454.78;;;6.07;100.00
59043;BME280;44826;51.596;5.624;2023-12-20T10:59:44;101441.88;;;6.07;100.00
59043;BME280;44826;51.596;5.624;2023-12-20T11:02:15;101453.06;;;6.09;100.00
59043;BME280;44826;51.596;5.624;2023-12-20T11:08:01;101440.13;;;6.07;100.00
59043;BME280;44826;51.596;5.624;2023-12-20T11:10:45;101441.03;;;6.11;100.00
59043;BME280;44826;51.596;5.624;2023-12-20T11:16:03;101430.72;;;6.19;100.00
59043;BME280;44826;51.596;5.624;2023-12-20T11:18:29;101417.78;;;6.19;100.00
59043;BME280;44826;51.596;5.624;2023-12-20T11:21:10;101432.44;;;6.21;100.00
59043;BME280;44826;51.596;5.624;2023-12-20T11:23:36;101417.78;;;6.23;100.00
59043;BME280;44826;51.596;5.624;2023-12-20T11:26:02;101420.38;;;6.20;100.00
59043;BME280;44826;51.596;5.624;2023-12-20T11:28:28;101417.78;;;6.20;100.00
59043;BME280;44826;51.596;5.624;2023-12-20T11:30:58;101415.22;;;6.23;100.00
59043;BME280;44826;51.596;5.624;2023-12-20T11:33:36;101410.91;;;6.26;100.00
59043;BME280;44826;51.596;5.624;2023-12-20T11:36:01;101418.66;;;6.29;100.00
59043;BME280;44826;51.596;5.624;2023-12-20T11:38:35;101420.41;;;6.30;100.00
59043;BME280;44826;51.596;5.624;2023-12-20T11:41:01;101416.94;;;6.31;100.00
59043;BME280;44826;51.596;5.624;2023-12-20T11:43:55;101420.38;;;6.33;100.00
59043;BME280;44826;51.596;5.624;2023-12-20T11:46:39;101413.50;;;6.29;100.00
59043;BME280;44826;51.596;5.624;2023-12-20T11:49:13;101403.16;;;6.30;100.00
59043;BME280;44826;51.596;5.624;2023-12-20T11:51:42;101409.19;;;6.34;100.00
59043;BME280;44826;51.596;5.624;2023-12-20T11:54:09;101410.03;;;6.36;100.00
59043;BME280;44826;51.596;5.624;2023-12-20T11:56:36;101399.72;;;6.36;100.00
59043;BME280;44826;51.596;5.624;2023-12-20T11:59:04;101396.25;;;6.34;100.00
59043;BME280;44826;51.596;5.624;2023-12-20T12:01:31;101398.00;;;6.32;100.00
59043;BME280;44826;51.596;5.624;2023-12-20T12:04:06;101400.56;;;6.30;100.00
59043;BME280;44826;51.596;5.624;2023-12-20T12:06:32;101397.13;;;6.30;100.00
59043;BME280;44826;51.596;5.624;2023-12-20T12:08:58;101394.53;;;6.27;100.00
59043;BME280;44826;51.596;5.624;2023-12-20T12:11:24;101393.66;;;6.26;100.00
59043;BME280;44826;51.596;5.624;2023-12-20T12:14:10;101381.63;;;6.23;100.00
59043;BME280;44826;51.596;5.624;2023-12-20T12:16:49;101391.09;;;6.26;100.00
59043;BME280;44826;51.596;5.624;2023-12-20T12:19:27;101387.66;;;6.26;100.00
59043;BME280;44826;51.596;5.624;2023-12-20T12:22:17;101379.03;;;6.25;100.00
59043;BME280;44826;51.596;5.624;2023-12-20T12:24:46;101375.56;;;6.26;100.00
59043;BME280;44826;51.596;5.624;2023-12-20T12:27:15;101368.72;;;6.27;100.00
59043;BME280;44826;51.596;5.624;2023-12-20T12:29:43;101370.41;;;6.29;100.00
59043;BME280;44826;51.596;5.624;2023-12-20T12:32:32;101359.22;;;6.33;100.00
59043;BME280;44826;51.596;5.624;2023-12-20T12:35:05;101352.34;;;6.35;100.00
59043;BME280;44826;51.596;5.624;2023-12-20T12:40:55;101343.75;;;6.40;100.00
59043;BME280;44826;51.596;5.624;2023-12-20T12:43:30;101343.72;;;6.41;100.00
59043;BME280;44826;51.596;5.624;2023-12-20T12:45:56;101344.59;;;6.43;100.00
59043;BME280;44826;51.596;5.624;2023-12-20T12:48:21;101346.31;;;6.44;100.00
59043;BME280;44826;51.596;5.624;2023-12-20T12:50:47;101363.53;;;6.45;100.00
59043;BME280;44826;51.596;5.624;2023-12-20T12:53:15;101346.31;;;6.44;100.00
59043;BME280;44826;51.596;5.624;2023-12-20T12:55:41;101343.72;;;6.46;100.00
59043;BME280;44826;51.596;5.624;2023-12-20T12:58:06;101340.28;;;6.48;100.00
59043;BME280;44826;51.596;5.624;2023-12-20T13:00:32;101332.50;;;6.51;100.00
59043;BME280;44826;51.596;5.624;2023-12-20T13:03:27;101323.03;;;6.53;100.00
59043;BME280;44826;51.596;5.624;2023-12-20T13:06:03;101328.19;;;6.58;100.00